createdAt,value
2022-12-17T00:01:51.515Z,25.00
2022-12-17T00:04:40.836Z,28.50
2022-12-17T00:07:29.751Z,26.20
2022-12-17T00:10:18.444Z,26.60
2022-12-17T00:13:09.059Z,28.10
2022-12-17T00:15:58.425Z,25.60
2022-12-17T00:18:47.176Z,24.70
2022-12-17T00:21:35.970Z,24.90
2022-12-17T00:24:25.643Z,23.60
2022-12-17T00:27:14.577Z,26.40
2022-12-17T00:30:03.547Z,24.60
2022-12-17T00:32:52.700Z,24.50
2022-12-17T00:35:41.442Z,25.30
2022-12-17T00:38:35.383Z,24.60
2022-12-17T00:41:24.908Z,25.80
2022-12-17T00:44:14.231Z,26.20
2022-12-17T00:47:03.382Z,26.80
2022-12-17T00:49:52.151Z,27.00
2022-12-17T00:52:41.366Z,27.20
2022-12-17T00:55:30.489Z,27.10
2022-12-17T00:58:19.025Z,27.60
2022-12-17T01:01:07.761Z,26.80
2022-12-17T01:03:56.776Z,24.90
2022-12-17T01:06:45.429Z,25.60
2022-12-17T01:09:30.639Z,24.80
2022-12-17T01:15:11.747Z,25.20
2022-12-17T01:18:00.893Z,22.90
2022-12-17T01:20:49.624Z,24.30
2022-12-17T01:23:38.803Z,24.40
2022-12-17T01:26:28.086Z,23.50
2022-12-17T01:29:17.774Z,24.50
2022-12-17T01:32:06.547Z,20.90
2022-12-17T01:34:55.184Z,23.60
2022-12-17T01:37:44.262Z,24.00
2022-12-17T01:40:33.229Z,23.90
2022-12-17T01:43:22.162Z,23.90
2022-12-17T01:46:11.267Z,24.80
2022-12-17T01:49:04.628Z,26.90
2022-12-17T01:51:54.270Z,25.20
2022-12-17T01:54:43.074Z,25.20
2022-12-17T01:57:32.239Z,25.40
2022-12-17T02:00:24.871Z,24.60
2022-12-17T02:03:14.197Z,24.10
2022-12-17T02:06:11.271Z,25.60
2022-12-17T02:09:08.907Z,24.40
2022-12-17T02:12:07.792Z,24.10
2022-12-17T02:15:03.697Z,25.10
2022-12-17T02:17:56.368Z,24.10
2022-12-17T02:20:49.587Z,25.40
2022-12-17T02:23:53.324Z,22.80
2022-12-17T02:26:56.413Z,23.40
2022-12-17T02:29:47.022Z,22.60
2022-12-17T02:32:38.229Z,25.00
2022-12-17T02:35:32.743Z,23.90
2022-12-17T02:38:21.717Z,24.20
2022-12-17T02:41:10.750Z,24.70
2022-12-17T02:44:07.955Z,23.70
2022-12-17T02:46:57.414Z,24.70
2022-12-17T02:49:46.292Z,23.30
2022-12-17T02:52:37.710Z,23.80
2022-12-17T02:55:28.298Z,23.10
2022-12-17T02:58:17.264Z,27.00
2022-12-17T03:01:05.933Z,24.10
2022-12-17T03:03:54.604Z,21.90
2022-12-17T03:06:43.768Z,23.40
2022-12-17T03:09:32.733Z,24.20
2022-12-17T03:12:22.719Z,25.80
2022-12-17T03:15:11.669Z,25.00
2022-12-17T03:18:00.854Z,23.00
2022-12-17T03:20:50.195Z,26.00
2022-12-17T03:23:39.033Z,26.10
2022-12-17T03:26:28.044Z,21.80
2022-12-17T03:29:17.180Z,25.00
2022-12-17T03:32:20.758Z,26.40
2022-12-17T03:35:10.294Z,26.40
2022-12-17T03:38:10.515Z,26.60
2022-12-17T03:40:59.132Z,25.20
2022-12-17T03:44:02.822Z,25.90
2022-12-17T03:46:51.824Z,26.80
2022-12-17T03:49:40.479Z,27.20
2022-12-17T03:52:29.406Z,25.70
2022-12-17T03:55:18.301Z,27.50
2022-12-17T03:58:07.023Z,25.60
2022-12-17T04:00:55.841Z,27.40
2022-12-17T04:03:44.772Z,24.70
2022-12-17T04:06:33.352Z,26.70
2022-12-17T04:09:22.673Z,26.30
2022-12-17T04:12:11.643Z,25.40
2022-12-17T04:15:00.912Z,24.70
2022-12-17T04:17:50.348Z,26.10
2022-12-17T04:20:38.981Z,26.30
2022-12-17T04:23:27.575Z,24.60
2022-12-17T04:26:16.674Z,25.20
2022-12-17T04:29:07.639Z,25.10
2022-12-17T04:31:57.596Z,25.80
2022-12-17T04:34:46.771Z,25.80
2022-12-17T04:37:35.775Z,24.80
2022-12-17T04:40:27.265Z,24.30
2022-12-17T04:43:16.012Z,24.30
2022-12-17T04:46:08.107Z,24.50
2022-12-17T04:48:57.165Z,24.50
2022-12-17T04:51:46.807Z,23.70
2022-12-17T04:54:35.632Z,24.60
2022-12-17T04:57:24.741Z,23.20
2022-12-17T05:00:13.943Z,23.80
2022-12-17T05:03:02.686Z,25.70
2022-12-17T05:05:51.879Z,22.10
2022-12-17T05:08:41.701Z,24.70
2022-12-17T05:11:30.327Z,22.80
2022-12-17T05:14:19.321Z,22.40
2022-12-17T05:17:08.034Z,23.40
2022-12-17T05:19:56.889Z,23.10
2022-12-17T05:22:45.653Z,22.10
2022-12-17T05:25:34.517Z,21.40
2022-12-17T05:28:23.297Z,21.80
2022-12-17T05:31:14.132Z,23.70
2022-12-17T05:34:03.124Z,21.90
2022-12-17T05:36:52.074Z,22.20
2022-12-17T05:39:40.862Z,24.50
2022-12-17T05:42:29.955Z,24.40
2022-12-17T05:45:18.873Z,23.70
2022-12-17T05:48:07.759Z,22.60
2022-12-17T05:50:56.391Z,24.30
2022-12-17T05:53:45.012Z,24.20
2022-12-17T05:56:33.647Z,23.10
2022-12-17T05:59:22.404Z,25.70
2022-12-17T06:02:11.197Z,26.60
2022-12-17T06:05:02.393Z,21.20
2022-12-17T06:07:51.716Z,20.10
2022-12-17T06:10:40.849Z,21.00
2022-12-17T06:13:29.839Z,24.10
2022-12-17T06:16:18.447Z,16.20
2022-12-17T06:19:07.487Z,20.90
2022-12-17T06:21:56.782Z,19.00
2022-12-17T06:24:46.227Z,18.90
2022-12-17T06:27:35.537Z,19.20
2022-12-17T06:30:25.436Z,15.90
2022-12-17T06:33:23.690Z,18.40
2022-12-17T06:36:21.724Z,20.10
2022-12-17T06:39:11.645Z,18.50
2022-12-17T06:42:04.155Z,19.80
2022-12-17T06:44:53.712Z,18.10
2022-12-17T06:47:42.779Z,19.80
2022-12-17T06:50:31.810Z,19.90
2022-12-17T06:53:22.473Z,21.30
2022-12-17T06:56:12.057Z,22.30
2022-12-17T06:59:09.561Z,19.70
2022-12-17T07:01:58.410Z,18.90
2022-12-17T07:04:48.128Z,18.20
2022-12-17T07:07:39.023Z,19.00
2022-12-17T07:10:29.081Z,19.90
2022-12-17T07:13:25.534Z,18.90
2022-12-17T07:16:15.188Z,18.80
2022-12-17T07:19:04.002Z,16.50
2022-12-17T07:21:52.740Z,17.50
2022-12-17T07:24:50.082Z,19.20
2022-12-17T07:27:41.494Z,15.60
2022-12-17T07:30:32.296Z,17.00
2022-12-17T07:33:23.609Z,17.70
2022-12-17T07:36:13.328Z,19.90
2022-12-17T07:39:02.099Z,18.90
2022-12-17T07:41:51.220Z,17.30
2022-12-17T07:44:39.980Z,17.10
2022-12-17T07:47:29.080Z,18.10
2022-12-17T07:50:17.826Z,17.80
2022-12-17T07:53:06.703Z,16.90
2022-12-17T07:55:55.834Z,18.80
2022-12-17T07:58:40.954Z,15.90
2022-12-17T08:04:17.502Z,16.20
2022-12-17T08:07:10.356Z,15.70
2022-12-17T08:10:02.415Z,18.40
2022-12-17T08:12:51.271Z,16.70
2022-12-17T08:15:39.982Z,20.10
2022-12-17T08:18:29.097Z,19.80
2022-12-17T08:21:17.880Z,17.00
2022-12-17T08:24:06.846Z,20.20
2022-12-17T08:26:55.911Z,19.80
2022-12-17T08:29:45.167Z,17.90
2022-12-17T08:32:33.789Z,20.40
2022-12-17T08:35:22.979Z,22.90
2022-12-17T08:38:11.698Z,20.40
2022-12-17T08:41:00.246Z,16.90
2022-12-17T08:43:49.213Z,17.00
2022-12-17T08:46:38.323Z,17.20
2022-12-17T08:49:27.285Z,15.70
2022-12-17T08:52:16.665Z,16.30
2022-12-17T08:55:06.019Z,19.60
2022-12-17T08:57:54.900Z,14.90
2022-12-17T09:00:43.884Z,17.70
2022-12-17T09:03:32.606Z,12.70
2022-12-17T09:06:21.717Z,17.20
2022-12-17T09:09:10.569Z,20.50
2022-12-17T09:11:59.683Z,19.30
2022-12-17T09:14:49.290Z,18.40
2022-12-17T09:17:38.105Z,18.40
2022-12-17T09:20:29.594Z,19.70
2022-12-17T09:23:19.117Z,17.70
2022-12-17T09:26:14.987Z,20.40
2022-12-17T09:29:04.385Z,22.50
2022-12-17T09:31:54.351Z,19.00
2022-12-17T09:34:43.300Z,20.40
2022-12-17T09:37:31.929Z,20.00
2022-12-17T09:40:20.994Z,19.70
2022-12-17T09:43:15.733Z,21.90
2022-12-17T09:46:19.183Z,19.60
2022-12-17T09:49:19.555Z,21.20
2022-12-17T09:52:08.496Z,20.80
2022-12-17T09:55:01.913Z,20.10
2022-12-17T09:57:54.893Z,23.80
2022-12-17T10:00:46.593Z,19.30
2022-12-17T10:03:37.995Z,21.40
2022-12-17T10:06:30.112Z,21.90
2022-12-17T10:09:17.264Z,23.10
2022-12-17T10:12:14.485Z,22.70
2022-12-17T10:15:09.208Z,17.70
2022-12-17T10:17:57.881Z,19.80
2022-12-17T10:20:51.590Z,23.00
2022-12-17T10:23:48.935Z,24.50
2022-12-17T10:26:41.934Z,22.40
2022-12-17T10:29:34.620Z,24.10
2022-12-17T10:32:38.237Z,24.60
2022-12-17T10:35:33.809Z,22.30
2022-12-17T10:41:12.608Z,22.10
2022-12-17T10:44:03.930Z,21.60
2022-12-17T10:46:54.068Z,21.80
2022-12-17T10:49:44.723Z,24.50
2022-12-17T10:52:46.389Z,25.80
2022-12-17T10:55:44.329Z,25.90
2022-12-17T10:58:36.673Z,24.70
2022-12-17T11:01:29.190Z,24.60
2022-12-17T11:04:18.655Z,28.50
2022-12-17T11:07:09.871Z,29.20
2022-12-17T11:10:08.960Z,30.80
2022-12-17T11:13:02.640Z,30.60
2022-12-17T11:15:56.869Z,28.30
2022-12-17T11:18:49.562Z,29.80
2022-12-17T11:21:43.976Z,29.90
2022-12-17T11:24:42.542Z,25.70
2022-12-17T11:27:38.695Z,25.00
2022-12-17T11:30:33.052Z,26.70
2022-12-17T11:33:37.614Z,25.70
2022-12-17T11:36:38.828Z,28.10
2022-12-17T11:39:32.943Z,24.60
2022-12-17T11:42:32.989Z,25.40
2022-12-17T11:45:35.683Z,27.40
2022-12-17T11:48:31.945Z,28.20
2022-12-17T11:51:28.209Z,23.60
2022-12-17T11:54:26.527Z,24.40
2022-12-17T11:57:24.815Z,23.10
2022-12-17T12:00:20.820Z,25.10
2022-12-17T12:03:18.369Z,23.20
2022-12-17T12:06:13.324Z,24.20
2022-12-17T12:09:09.779Z,21.30
2022-12-17T12:12:06.531Z,23.90
2022-12-17T12:15:02.947Z,22.60
2022-12-17T12:18:03.795Z,27.80
2022-12-17T12:21:11.327Z,26.00
2022-12-17T12:24:16.784Z,24.50
2022-12-17T12:27:19.123Z,27.00
2022-12-17T12:30:26.224Z,27.90
2022-12-17T12:33:23.690Z,26.90
2022-12-17T12:36:19.567Z,22.50
2022-12-17T12:39:11.891Z,30.00
2022-12-17T12:42:06.397Z,30.90
2022-12-17T12:45:02.338Z,27.90
2022-12-17T12:47:59.561Z,27.00
2022-12-17T12:50:58.394Z,30.50
2022-12-17T12:53:47.132Z,22.40
2022-12-17T12:56:52.618Z,30.60
2022-12-17T12:59:48.740Z,29.30
2022-12-17T13:02:47.117Z,27.00
2022-12-17T13:05:38.982Z,27.50
2022-12-17T13:08:23.897Z,28.00
2022-12-17T13:10:56.293Z,28.90
2022-12-17T13:13:41.264Z,30.50
2022-12-17T13:16:27.831Z,29.80
2022-12-17T13:19:19.175Z,29.70
2022-12-17T13:21:51.109Z,26.70
2022-12-17T13:24:30.220Z,29.00
2022-12-17T13:27:01.787Z,28.10
2022-12-17T13:29:37.696Z,27.40
2022-12-17T13:32:24.300Z,29.80
2022-12-17T13:35:17.410Z,29.40
2022-12-17T13:38:00.256Z,30.20
2022-12-17T13:40:41.629Z,32.80
2022-12-17T13:43:21.336Z,28.50
2022-12-17T13:45:54.233Z,28.20
2022-12-17T13:48:28.261Z,29.30
2022-12-17T13:51:02.329Z,28.90
2022-12-17T13:53:35.354Z,28.50
2022-12-17T13:56:07.071Z,28.70
2022-12-17T13:58:39.125Z,28.00
2022-12-17T14:01:13.868Z,28.20
2022-12-17T14:04:07.474Z,28.00
2022-12-17T14:06:41.197Z,26.20
2022-12-17T14:09:19.095Z,27.60
2022-12-17T14:12:08.461Z,27.30
2022-12-17T14:14:41.895Z,27.70
2022-12-17T14:17:21.572Z,28.20
2022-12-17T14:19:59.250Z,24.90
2022-12-17T14:22:36.671Z,28.30
2022-12-17T14:25:18.143Z,29.20
2022-12-17T14:27:57.288Z,30.90
2022-12-17T14:30:46.162Z,46.80
2022-12-17T14:33:33.697Z,36.20
2022-12-17T14:36:08.568Z,48.70
2022-12-17T14:38:42.962Z,34.80
2022-12-17T14:41:35.908Z,32.40
2022-12-17T14:44:08.465Z,30.60
2022-12-17T14:46:40.071Z,31.60
2022-12-17T14:49:21.966Z,31.00
2022-12-17T14:51:53.853Z,30.10
2022-12-17T14:54:31.756Z,34.40
2022-12-17T14:57:07.032Z,27.80
2022-12-17T14:59:41.230Z,30.40
2022-12-17T15:02:24.317Z,31.20
2022-12-17T15:04:58.458Z,31.00
2022-12-17T15:07:32.654Z,28.40
2022-12-17T15:10:10.885Z,31.60
2022-12-17T15:12:43.580Z,30.10
2022-12-17T15:15:17.952Z,30.70
2022-12-17T15:17:49.898Z,29.10
2022-12-17T15:20:22.790Z,29.10
2022-12-17T15:22:54.374Z,30.70
2022-12-17T15:25:26.016Z,30.40
2022-12-17T15:27:57.831Z,28.50
2022-12-17T15:30:29.703Z,27.30
2022-12-17T15:33:01.346Z,29.40
2022-12-17T15:35:33.137Z,26.70
2022-12-17T15:38:05.624Z,30.80
2022-12-17T15:40:38.227Z,27.20
2022-12-17T15:43:16.324Z,29.10
2022-12-17T15:45:49.552Z,26.30
2022-12-17T15:48:23.646Z,24.30
2022-12-17T15:50:55.942Z,24.10
2022-12-17T15:53:28.660Z,27.10
2022-12-17T15:56:05.562Z,24.30
2022-12-17T15:58:37.563Z,27.10
2022-12-17T16:01:11.267Z,25.80
2022-12-17T16:03:44.702Z,25.10
2022-12-17T16:06:17.465Z,25.10
2022-12-17T16:08:49.594Z,23.40
2022-12-17T16:11:21.551Z,26.90
2022-12-17T16:13:57.302Z,24.40
2022-12-17T16:16:32.313Z,23.70
2022-12-17T16:19:04.756Z,25.70
2022-12-17T16:21:38.763Z,22.60
2022-12-17T16:24:14.927Z,25.60
2022-12-17T16:26:47.601Z,23.10
2022-12-17T16:29:21.887Z,23.30
2022-12-17T16:31:54.644Z,23.20
2022-12-17T16:34:28.649Z,22.90
2022-12-17T16:37:02.187Z,17.90
2022-12-17T16:39:35.864Z,19.10
2022-12-17T16:42:08.561Z,22.40
2022-12-17T16:44:41.478Z,21.90
2022-12-17T16:47:15.123Z,20.70
2022-12-17T16:49:53.209Z,22.20
2022-12-17T16:52:25.539Z,22.10
2022-12-17T16:54:58.535Z,22.20
2022-12-17T16:57:32.807Z,21.70
2022-12-17T17:00:05.547Z,21.70
2022-12-17T17:02:37.893Z,27.10
2022-12-17T17:05:11.838Z,24.70
2022-12-17T17:07:43.844Z,27.80
2022-12-17T17:10:15.605Z,26.30
2022-12-17T17:12:47.219Z,25.60
2022-12-17T17:15:19.933Z,23.00
2022-12-17T17:17:55.896Z,23.20
2022-12-17T17:20:32.630Z,24.60
2022-12-17T17:23:04.690Z,22.90
2022-12-17T17:25:57.472Z,25.30
2022-12-17T17:28:29.076Z,23.00
2022-12-17T17:31:06.192Z,23.90
2022-12-17T17:33:39.719Z,23.10
2022-12-17T17:36:15.208Z,24.50
2022-12-17T17:38:47.325Z,21.60
2022-12-17T17:41:20.969Z,21.30
2022-12-17T17:43:56.875Z,19.30
2022-12-17T17:46:30.225Z,21.50
2022-12-17T17:49:04.109Z,21.00
2022-12-17T17:52:08.402Z,20.60
2022-12-17T17:54:30.267Z,20.30
2022-12-17T17:57:02.650Z,21.80
2022-12-17T17:59:34.772Z,20.10
2022-12-17T18:02:07.369Z,20.40
2022-12-17T18:04:40.212Z,20.50
2022-12-17T18:07:28.281Z,23.00
2022-12-17T18:10:01.268Z,22.80
2022-12-17T18:13:02.113Z,21.60
2022-12-17T18:15:33.662Z,20.90
2022-12-17T18:18:12.682Z,27.10
2022-12-17T18:20:46.011Z,26.30
2022-12-17T18:23:18.164Z,26.20
2022-12-17T18:25:51.119Z,25.30
2022-12-17T18:28:23.593Z,23.80
2022-12-17T18:30:55.318Z,24.30
2022-12-17T18:33:27.694Z,26.30
2022-12-17T18:35:59.811Z,25.50
2022-12-17T18:38:31.807Z,23.60
2022-12-17T18:41:31.134Z,23.30
2022-12-17T18:44:07.088Z,21.00
2022-12-17T18:46:39.954Z,22.20
2022-12-17T18:49:17.824Z,22.20
2022-12-17T18:51:53.719Z,24.60
2022-12-17T18:54:27.974Z,25.40
2022-12-17T18:57:02.557Z,23.30
2022-12-17T18:59:34.984Z,25.00
2022-12-17T19:02:11.717Z,29.00
2022-12-17T19:04:44.499Z,27.70
2022-12-17T19:07:17.895Z,26.90
2022-12-17T19:09:50.479Z,27.90
2022-12-17T19:12:22.885Z,28.90
2022-12-17T19:14:55.022Z,27.20
2022-12-17T19:17:28.071Z,27.70
2022-12-17T19:20:02.320Z,25.60
2022-12-17T19:22:34.890Z,25.00
2022-12-17T19:25:07.480Z,29.90
2022-12-17T19:27:39.580Z,30.70
2022-12-17T19:30:14.920Z,26.10
2022-12-17T19:32:47.130Z,24.70
2022-12-17T19:35:19.660Z,22.90
2022-12-17T19:37:54.904Z,24.50
2022-12-17T19:40:27.127Z,25.70
2022-12-17T19:43:00.200Z,23.70
2022-12-17T19:45:35.581Z,23.10
2022-12-17T19:48:11.386Z,25.30
2022-12-17T19:50:44.614Z,24.40
2022-12-17T19:53:16.550Z,22.30
2022-12-17T19:55:49.692Z,23.70
2022-12-17T19:58:22.455Z,27.60
2022-12-17T20:00:55.970Z,23.40
2022-12-17T20:03:30.785Z,20.90
2022-12-17T20:08:34.428Z,15.90
2022-12-17T20:11:25.893Z,17.30
2022-12-17T20:14:03.279Z,19.30
2022-12-17T20:16:41.194Z,20.60
2022-12-17T20:19:16.722Z,20.20
2022-12-17T20:21:51.781Z,20.90
2022-12-17T20:24:30.741Z,19.90
2022-12-17T20:27:04.943Z,20.90
2022-12-17T20:29:38.852Z,19.90
2022-12-17T20:32:11.339Z,20.40
2022-12-17T20:34:45.440Z,19.10
2022-12-17T20:37:19.921Z,19.60
2022-12-17T20:39:52.118Z,19.40
2022-12-17T20:42:25.880Z,18.10
2022-12-17T20:44:59.115Z,18.70
2022-12-17T20:47:31.468Z,18.00
2022-12-17T20:50:05.966Z,20.00
2022-12-17T20:52:38.729Z,16.40
2022-12-17T20:55:12.275Z,17.00
2022-12-17T20:57:44.647Z,20.30
2022-12-17T21:00:19.110Z,18.00
2022-12-17T21:02:52.340Z,17.50
2022-12-17T21:05:25.932Z,17.80
2022-12-17T21:07:59.068Z,17.30
2022-12-17T21:10:31.250Z,18.40
2022-12-17T21:13:19.709Z,17.20
2022-12-17T21:15:53.887Z,17.10
2022-12-17T21:18:26.417Z,19.20
2022-12-17T21:21:05.254Z,18.20
2022-12-17T21:23:40.052Z,17.90
2022-12-17T21:28:45.590Z,17.20
2022-12-17T21:31:23.878Z,19.60
2022-12-17T21:33:58.735Z,18.20
2022-12-17T21:36:32.513Z,16.50
2022-12-17T21:39:08.881Z,16.40
2022-12-17T21:41:44.990Z,17.80
2022-12-17T21:44:17.917Z,16.80
2022-12-17T21:46:50.621Z,18.50
2022-12-17T21:49:23.756Z,19.10
2022-12-17T21:51:59.735Z,19.90
2022-12-17T21:54:32.166Z,17.10
2022-12-17T21:57:04.518Z,18.70
2022-12-17T21:59:39.147Z,17.70
2022-12-17T22:02:12.766Z,17.80
2022-12-17T22:04:46.330Z,17.60
2022-12-17T22:07:27.729Z,15.80
2022-12-17T22:10:32.395Z,17.40
2022-12-17T22:13:11.195Z,15.90
2022-12-17T22:15:47.997Z,16.50
2022-12-17T22:18:19.791Z,16.40
2022-12-17T22:21:00.163Z,15.50
2022-12-17T22:23:33.576Z,18.80
2022-12-17T22:26:10.443Z,15.70
2022-12-17T22:28:42.828Z,20.10
2022-12-17T22:31:33.996Z,17.80
2022-12-17T22:35:30.400Z,19.00
2022-12-17T22:40:01.347Z,18.60
2022-12-17T22:44:31.829Z,19.00
2022-12-17T22:44:36.804Z,16.30
2022-12-17T22:45:59.746Z,16.90
2022-12-17T22:48:32.543Z,17.60
2022-12-17T22:51:21.513Z,19.20
2022-12-17T22:54:02.043Z,17.80
2022-12-17T22:57:29.825Z,18.40
2022-12-17T22:59:27.048Z,18.10
2022-12-17T23:01:58.767Z,19.00
2022-12-17T23:04:30.505Z,20.40
2022-12-17T23:07:02.792Z,21.50
2022-12-17T23:09:34.602Z,21.10
2022-12-17T23:12:20.205Z,20.20
2022-12-17T23:14:52.246Z,20.50
2022-12-17T23:17:24.418Z,19.50
2022-12-17T23:19:56.887Z,19.20
2022-12-17T23:22:28.642Z,20.60
2022-12-17T23:25:00.504Z,21.20
2022-12-17T23:27:32.423Z,22.40
2022-12-17T23:30:04.285Z,24.80
2022-12-17T23:32:35.823Z,22.60
2022-12-17T23:35:09.054Z,22.80
2022-12-17T23:37:41.681Z,22.70
2022-12-17T23:40:17.439Z,22.30
2022-12-17T23:42:49.148Z,24.00
2022-12-17T23:45:21.051Z,25.00
2022-12-17T23:47:53.267Z,24.30
2022-12-17T23:50:25.148Z,23.50
2022-12-17T23:52:56.881Z,22.10
2022-12-17T23:55:28.448Z,22.80
2022-12-17T23:58:00.875Z,22.40
